sensor_id;sensor_type;location;lat;lon;timestamp;P1;durP1;ratioP1;P2;durP2;ratioP2
6737;SDS011;3406;49.902;8.596;2023-07-02T00:01:43;0.37;;;0.37;;
6737;SDS011;3406;49.902;8.596;2023-07-02T00:04:09;0.20;;;0.20;;
6737;SDS011;3406;49.902;8.596;2023-07-02T00:06:38;0.30;;;0.30;;
6737;SDS011;3406;49.902;8.596;2023-07-02T00:09:07;0.30;;;0.30;;
6737;SDS011;3406;49.902;8.596;2023-07-02T00:11:35;0.30;;;0.30;;
6737;SDS011;3406;49.902;8.596;2023-07-02T00:14:01;0.30;;;0.30;;
6737;SDS011;3406;49.902;8.596;2023-07-02T00:16:28;0.20;;;0.20;;
6737;SDS011;3406;49.902;8.596;2023-07-02T00:18:55;0.20;;;0.20;;
6737;SDS011;3406;49.902;8.596;2023-07-02T00:21:22;0.20;;;0.20;;
6737;SDS011;3406;49.902;8.596;2023-07-02T00:23:53;0.40;;;0.40;;
6737;SDS011;3406;49.902;8.596;2023-07-02T00:26:22;0.10;;;0.10;;
6737;SDS011;3406;49.902;8.596;2023-07-02T00:28:50;0.10;;;0.10;;
6737;SDS011;3406;49.902;8.596;2023-07-02T00:31:17;0.40;;;0.40;;
6737;SDS011;3406;49.902;8.596;2023-07-02T00:33:43;0.10;;;0.10;;
6737;SDS011;3406;49.902;8.596;2023-07-02T00:36:10;1.17;;;0.60;;
6737;SDS011;3406;49.902;8.596;2023-07-02T00:38:40;0.20;;;0.20;;
6737;SDS011;3406;49.902;8.596;2023-07-02T00:41:07;0.50;;;0.30;;
6737;SDS011;3406;49.902;8.596;2023-07-02T00:43:35;4.33;;;0.30;;
6737;SDS011;3406;49.902;8.596;2023-07-02T00:46:03;0.40;;;0.40;;
6737;SDS011;3406;49.902;8.596;2023-07-02T00:48:30;0.13;;;0.13;;
6737;SDS011;3406;49.902;8.596;2023-07-02T00:50:58;0.20;;;0.20;;
6737;SDS011;3406;49.902;8.596;2023-07-02T00:53:24;0.23;;;0.23;;
6737;SDS011;3406;49.902;8.596;2023-07-02T00:55:51;0.30;;;0.30;;
6737;SDS011;3406;49.902;8.596;2023-07-02T00:58:18;0.33;;;0.33;;
6737;SDS011;3406;49.902;8.596;2023-07-02T01:00:47;0.20;;;0.20;;
6737;SDS011;3406;49.902;8.596;2023-07-02T01:03:14;0.33;;;0.33;;
6737;SDS011;3406;49.902;8.596;2023-07-02T01:05:40;0.20;;;0.20;;
6737;SDS011;3406;49.902;8.596;2023-07-02T01:08:07;0.10;;;0.10;;
6737;SDS011;3406;49.902;8.596;2023-07-02T01:10:35;0.20;;;0.20;;
6737;SDS011;3406;49.902;8.596;2023-07-02T01:13:03;2.73;;;0.10;;
6737;SDS011;3406;49.902;8.596;2023-07-02T01:15:35;0.23;;;0.23;;
6737;SDS011;3406;49.902;8.596;2023-07-02T01:18:04;0.10;;;0.10;;
6737;SDS011;3406;49.902;8.596;2023-07-02T01:20:33;0.00;;;0.00;;
6737;SDS011;3406;49.902;8.596;2023-07-02T01:23:00;0.10;;;0.10;;
6737;SDS011;3406;49.902;8.596;2023-07-02T01:25:28;0.47;;;0.47;;
6737;SDS011;3406;49.902;8.596;2023-07-02T01:27:55;0.30;;;0.30;;
6737;SDS011;3406;49.902;8.596;2023-07-02T01:30:23;0.10;;;0.10;;
6737;SDS011;3406;49.902;8.596;2023-07-02T01:32:50;0.30;;;0.30;;
6737;SDS011;3406;49.902;8.596;2023-07-02T01:35:18;0.37;;;0.37;;
6737;SDS011;3406;49.902;8.596;2023-07-02T01:37:46;0.20;;;0.20;;
6737;SDS011;3406;49.902;8.596;2023-07-02T01:40:13;0.30;;;0.30;;
6737;SDS011;3406;49.902;8.596;2023-07-02T01:42:40;0.10;;;0.10;;
6737;SDS011;3406;49.902;8.596;2023-07-02T01:45:07;0.10;;;0.10;;
6737;SDS011;3406;49.902;8.596;2023-07-02T01:47:34;0.50;;;0.43;;
6737;SDS011;3406;49.902;8.596;2023-07-02T01:50:01;0.20;;;0.20;;
6737;SDS011;3406;49.902;8.596;2023-07-02T01:52:29;0.20;;;0.20;;
6737;SDS011;3406;49.902;8.596;2023-07-02T01:54:59;0.17;;;0.17;;
6737;SDS011;3406;49.902;8.596;2023-07-02T01:57:26;0.37;;;0.37;;
6737;SDS011;3406;49.902;8.596;2023-07-02T01:59:53;0.17;;;0.17;;
6737;SDS011;3406;49.902;8.596;2023-07-02T02:02:19;0.10;;;0.10;;
6737;SDS011;3406;49.902;8.596;2023-07-02T02:04:46;0.30;;;0.30;;
6737;SDS011;3406;49.902;8.596;2023-07-02T02:07:13;0.20;;;0.20;;
6737;SDS011;3406;49.902;8.596;2023-07-02T02:09:39;0.30;;;0.30;;
6737;SDS011;3406;49.902;8.596;2023-07-02T02:12:07;0.20;;;0.20;;
6737;SDS011;3406;49.902;8.596;2023-07-02T02:14:35;0.20;;;0.20;;
6737;SDS011;3406;49.902;8.596;2023-07-02T02:17:02;0.30;;;0.30;;
6737;SDS011;3406;49.902;8.596;2023-07-02T02:19:29;0.30;;;0.30;;
6737;SDS011;3406;49.902;8.596;2023-07-02T02:21:55;0.30;;;0.30;;
6737;SDS011;3406;49.902;8.596;2023-07-02T02:24:22;0.20;;;0.20;;
6737;SDS011;3406;49.902;8.596;2023-07-02T02:26:48;0.40;;;0.37;;
6737;SDS011;3406;49.902;8.596;2023-07-02T02:29:16;0.20;;;0.20;;
6737;SDS011;3406;49.902;8.596;2023-07-02T02:31:43;0.47;;;0.47;;
6737;SDS011;3406;49.902;8.596;2023-07-02T02:34:10;0.33;;;0.33;;
6737;SDS011;3406;49.902;8.596;2023-07-02T02:36:36;4.07;;;0.53;;
6737;SDS011;3406;49.902;8.596;2023-07-02T02:39:03;11.23;;;0.70;;
6737;SDS011;3406;49.902;8.596;2023-07-02T02:41:30;0.73;;;0.73;;
6737;SDS011;3406;49.902;8.596;2023-07-02T02:43:57;0.50;;;0.50;;
6737;SDS011;3406;49.902;8.596;2023-07-02T02:46:25;0.30;;;0.30;;
6737;SDS011;3406;49.902;8.596;2023-07-02T02:48:52;0.30;;;0.30;;
6737;SDS011;3406;49.902;8.596;2023-07-02T02:54:40;0.40;;;0.40;;
6737;SDS011;3406;49.902;8.596;2023-07-02T02:57:07;0.20;;;0.20;;
6737;SDS011;3406;49.902;8.596;2023-07-02T02:59:34;1.17;;;0.83;;
6737;SDS011;3406;49.902;8.596;2023-07-02T03:02:02;0.70;;;0.70;;
6737;SDS011;3406;49.902;8.596;2023-07-02T03:04:29;0.57;;;0.57;;
6737;SDS011;3406;49.902;8.596;2023-07-02T03:06:56;0.50;;;0.50;;
6737;SDS011;3406;49.902;8.596;2023-07-02T03:09:22;0.33;;;0.33;;
6737;SDS011;3406;49.902;8.596;2023-07-02T03:11:49;2.53;;;0.40;;
6737;SDS011;3406;49.902;8.596;2023-07-02T03:14:16;0.53;;;0.53;;
6737;SDS011;3406;49.902;8.596;2023-07-02T03:16:43;4.57;;;1.00;;
6737;SDS011;3406;49.902;8.596;2023-07-02T03:19:12;0.47;;;0.47;;
6737;SDS011;3406;49.902;8.596;2023-07-02T03:21:41;0.30;;;0.30;;
6737;SDS011;3406;49.902;8.596;2023-07-02T03:24:08;0.90;;;0.40;;
6737;SDS011;3406;49.902;8.596;2023-07-02T03:26:36;0.40;;;0.40;;
6737;SDS011;3406;49.902;8.596;2023-07-02T03:29:03;0.50;;;0.40;;
6737;SDS011;3406;49.902;8.596;2023-07-02T03:31:30;0.40;;;0.33;;
6737;SDS011;3406;49.902;8.596;2023-07-02T03:33:56;0.20;;;0.20;;
6737;SDS011;3406;49.902;8.596;2023-07-02T03:36:24;0.70;;;0.70;;
6737;SDS011;3406;49.902;8.596;2023-07-02T03:38:51;0.40;;;0.40;;
6737;SDS011;3406;49.902;8.596;2023-07-02T03:41:17;0.40;;;0.40;;
6737;SDS011;3406;49.902;8.596;2023-07-02T03:43:44;0.83;;;0.83;;
6737;SDS011;3406;49.902;8.596;2023-07-02T03:46:12;0.10;;;0.10;;
6737;SDS011;3406;49.902;8.596;2023-07-02T03:48:39;0.40;;;0.40;;
6737;SDS011;3406;49.902;8.596;2023-07-02T03:51:06;0.30;;;0.30;;
6737;SDS011;3406;49.902;8.596;2023-07-02T03:53:34;1.80;;;0.73;;
6737;SDS011;3406;49.902;8.596;2023-07-02T03:56:00;0.40;;;0.40;;
6737;SDS011;3406;49.902;8.596;2023-07-02T03:58:27;0.23;;;0.23;;
6737;SDS011;3406;49.902;8.596;2023-07-02T04:00:54;0.77;;;0.43;;
6737;SDS011;3406;49.902;8.596;2023-07-02T04:03:20;0.23;;;0.23;;
6737;SDS011;3406;49.902;8.596;2023-07-02T04:05:47;0.47;;;0.47;;
6737;SDS011;3406;49.902;8.596;2023-07-02T04:08:14;0.50;;;0.50;;
6737;SDS011;3406;49.902;8.596;2023-07-02T04:10:42;0.33;;;0.33;;
6737;SDS011;3406;49.902;8.596;2023-07-02T04:13:09;0.40;;;0.40;;
6737;SDS011;3406;49.902;8.596;2023-07-02T04:15:35;0.33;;;0.33;;
6737;SDS011;3406;49.902;8.596;2023-07-02T04:18:02;0.20;;;0.20;;
6737;SDS011;3406;49.902;8.596;2023-07-02T04:20:28;0.37;;;0.37;;
6737;SDS011;3406;49.902;8.596;2023-07-02T04:22:55;0.27;;;0.27;;
6737;SDS011;3406;49.902;8.596;2023-07-02T04:25:22;0.20;;;0.20;;
6737;SDS011;3406;49.902;8.596;2023-07-02T04:27:50;0.20;;;0.20;;
6737;SDS011;3406;49.902;8.596;2023-07-02T04:30:21;0.30;;;0.30;;
6737;SDS011;3406;49.902;8.596;2023-07-02T04:32:48;0.50;;;0.50;;
6737;SDS011;3406;49.902;8.596;2023-07-02T04:35:14;0.23;;;0.23;;
6737;SDS011;3406;49.902;8.596;2023-07-02T04:37:41;0.83;;;0.83;;
6737;SDS011;3406;49.902;8.596;2023-07-02T04:40:08;0.10;;;0.10;;
6737;SDS011;3406;49.902;8.596;2023-07-02T04:42:35;0.30;;;0.30;;
6737;SDS011;3406;49.902;8.596;2023-07-02T04:45:04;0.70;;;0.70;;
6737;SDS011;3406;49.902;8.596;2023-07-02T04:47:32;0.37;;;0.37;;
6737;SDS011;3406;49.902;8.596;2023-07-02T04:49:59;0.20;;;0.20;;
6737;SDS011;3406;49.902;8.596;2023-07-02T04:52:25;0.20;;;0.20;;
6737;SDS011;3406;49.902;8.596;2023-07-02T04:54:52;1.07;;;1.07;;
6737;SDS011;3406;49.902;8.596;2023-07-02T04:57:21;0.40;;;0.40;;
6737;SDS011;3406;49.902;8.596;2023-07-02T04:59:47;3.80;;;0.40;;
6737;SDS011;3406;49.902;8.596;2023-07-02T05:02:17;1.40;;;0.83;;
6737;SDS011;3406;49.902;8.596;2023-07-02T05:04:43;0.50;;;0.50;;
6737;SDS011;3406;49.902;8.596;2023-07-02T05:07:10;0.27;;;0.27;;
6737;SDS011;3406;49.902;8.596;2023-07-02T05:09:37;0.27;;;0.27;;
6737;SDS011;3406;49.902;8.596;2023-07-02T05:12:03;0.70;;;0.70;;
6737;SDS011;3406;49.902;8.596;2023-07-02T05:14:30;0.50;;;0.50;;
6737;SDS011;3406;49.902;8.596;2023-07-02T05:16:57;0.73;;;0.73;;
6737;SDS011;3406;49.902;8.596;2023-07-02T05:19:25;0.53;;;0.53;;
6737;SDS011;3406;49.902;8.596;2023-07-02T05:21:51;0.40;;;0.40;;
6737;SDS011;3406;49.902;8.596;2023-07-02T05:24:18;0.77;;;0.77;;
6737;SDS011;3406;49.902;8.596;2023-07-02T05:26:45;0.80;;;0.80;;
6737;SDS011;3406;49.902;8.596;2023-07-02T05:29:12;0.80;;;0.80;;
6737;SDS011;3406;49.902;8.596;2023-07-02T05:31:39;6.50;;;0.60;;
6737;SDS011;3406;49.902;8.596;2023-07-02T05:34:06;0.80;;;0.80;;
6737;SDS011;3406;49.902;8.596;2023-07-02T05:36:34;0.83;;;0.83;;
6737;SDS011;3406;49.902;8.596;2023-07-02T05:39:00;0.77;;;0.77;;
6737;SDS011;3406;49.902;8.596;2023-07-02T05:41:27;0.33;;;0.33;;
6737;SDS011;3406;49.902;8.596;2023-07-02T05:47:17;0.67;;;0.67;;
6737;SDS011;3406;49.902;8.596;2023-07-02T05:49:44;1.13;;;1.13;;
6737;SDS011;3406;49.902;8.596;2023-07-02T05:52:12;0.13;;;0.13;;
6737;SDS011;3406;49.902;8.596;2023-07-02T05:54:39;1.60;;;1.33;;
6737;SDS011;3406;49.902;8.596;2023-07-02T05:57:06;1.43;;;1.07;;
6737;SDS011;3406;49.902;8.596;2023-07-02T05:59:32;0.70;;;0.70;;
6737;SDS011;3406;49.902;8.596;2023-07-02T06:01:59;0.30;;;0.30;;
6737;SDS011;3406;49.902;8.596;2023-07-02T06:04:26;0.60;;;0.60;;
6737;SDS011;3406;49.902;8.596;2023-07-02T06:06:53;0.60;;;0.60;;
6737;SDS011;3406;49.902;8.596;2023-07-02T06:09:21;0.50;;;0.50;;
6737;SDS011;3406;49.902;8.596;2023-07-02T06:11:47;0.70;;;0.70;;
6737;SDS011;3406;49.902;8.596;2023-07-02T06:14:14;2.03;;;1.07;;
6737;SDS011;3406;49.902;8.596;2023-07-02T06:16:41;1.33;;;1.33;;
6737;SDS011;3406;49.902;8.596;2023-07-02T06:19:07;0.80;;;0.80;;
6737;SDS011;3406;49.902;8.596;2023-07-02T06:21:34;0.90;;;0.90;;
6737;SDS011;3406;49.902;8.596;2023-07-02T06:24:02;0.73;;;0.73;;
6737;SDS011;3406;49.902;8.596;2023-07-02T06:26:30;1.00;;;0.97;;
6737;SDS011;3406;49.902;8.596;2023-07-02T06:28:57;0.80;;;0.80;;
6737;SDS011;3406;49.902;8.596;2023-07-02T06:31:23;0.70;;;0.70;;
6737;SDS011;3406;49.902;8.596;2023-07-02T06:33:50;0.80;;;0.80;;
6737;SDS011;3406;49.902;8.596;2023-07-02T06:38:45;1.30;;;1.30;;
6737;SDS011;3406;49.902;8.596;2023-07-02T06:41:11;2.77;;;1.00;;
6737;SDS011;3406;49.902;8.596;2023-07-02T06:43:41;1.43;;;1.43;;
6737;SDS011;3406;49.902;8.596;2023-07-02T06:46:09;0.70;;;0.70;;
6737;SDS011;3406;49.902;8.596;2023-07-02T06:48:36;0.93;;;0.90;;
6737;SDS011;3406;49.902;8.596;2023-07-02T06:51:03;0.77;;;0.77;;
6737;SDS011;3406;49.902;8.596;2023-07-02T06:53:29;0.73;;;0.73;;
6737;SDS011;3406;49.902;8.596;2023-07-02T06:55:56;0.90;;;0.70;;
6737;SDS011;3406;49.902;8.596;2023-07-02T06:58:22;0.93;;;0.87;;
6737;SDS011;3406;49.902;8.596;2023-07-02T07:00:50;2.97;;;0.70;;
6737;SDS011;3406;49.902;8.596;2023-07-02T07:03:17;0.77;;;0.77;;
6737;SDS011;3406;49.902;8.596;2023-07-02T07:05:44;4.93;;;0.80;;
6737;SDS011;3406;49.902;8.596;2023-07-02T07:08:10;1.07;;;1.07;;
6737;SDS011;3406;49.902;8.596;2023-07-02T07:10:37;0.50;;;0.50;;
6737;SDS011;3406;49.902;8.596;2023-07-02T07:13:04;0.80;;;0.80;;
6737;SDS011;3406;49.902;8.596;2023-07-02T07:15:32;4.83;;;0.80;;
6737;SDS011;3406;49.902;8.596;2023-07-02T07:18:01;4.00;;;1.50;;
6737;SDS011;3406;49.902;8.596;2023-07-02T07:20:28;1.43;;;1.23;;
6737;SDS011;3406;49.902;8.596;2023-07-02T07:22:55;0.40;;;0.40;;
6737;SDS011;3406;49.902;8.596;2023-07-02T07:25:21;3.03;;;0.53;;
6737;SDS011;3406;49.902;8.596;2023-07-02T07:27:48;0.90;;;0.90;;
6737;SDS011;3406;49.902;8.596;2023-07-02T07:30:15;3.47;;;1.23;;
6737;SDS011;3406;49.902;8.596;2023-07-02T07:32:47;1.97;;;1.60;;
6737;SDS011;3406;49.902;8.596;2023-07-02T07:35:15;0.80;;;0.80;;
6737;SDS011;3406;49.902;8.596;2023-07-02T07:37:42;1.13;;;1.13;;
6737;SDS011;3406;49.902;8.596;2023-07-02T07:40:10;1.60;;;1.27;;
6737;SDS011;3406;49.902;8.596;2023-07-02T07:42:37;1.27;;;1.20;;
6737;SDS011;3406;49.902;8.596;2023-07-02T07:45:04;2.90;;;2.33;;
6737;SDS011;3406;49.902;8.596;2023-07-02T07:47:31;1.13;;;1.03;;
6737;SDS011;3406;49.902;8.596;2023-07-02T07:49:58;0.97;;;0.97;;
6737;SDS011;3406;49.902;8.596;2023-07-02T07:52:26;1.00;;;1.00;;
6737;SDS011;3406;49.902;8.596;2023-07-02T07:54:53;3.50;;;1.97;;
6737;SDS011;3406;49.902;8.596;2023-07-02T07:57:19;0.87;;;0.87;;
6737;SDS011;3406;49.902;8.596;2023-07-02T07:59:46;1.10;;;1.10;;
6737;SDS011;3406;49.902;8.596;2023-07-02T08:02:12;1.13;;;1.13;;
6737;SDS011;3406;49.902;8.596;2023-07-02T08:04:39;0.73;;;0.60;;
6737;SDS011;3406;49.902;8.596;2023-07-02T08:07:06;4.03;;;1.33;;
6737;SDS011;3406;49.902;8.596;2023-07-02T08:09:35;0.97;;;0.97;;
6737;SDS011;3406;49.902;8.596;2023-07-02T08:12:02;1.00;;;0.97;;
6737;SDS011;3406;49.902;8.596;2023-07-02T08:14:29;1.70;;;1.60;;
6737;SDS011;3406;49.902;8.596;2023-07-02T08:16:55;0.97;;;0.97;;
6737;SDS011;3406;49.902;8.596;2023-07-02T08:19:22;4.60;;;1.85;;
6737;SDS011;3406;49.902;8.596;2023-07-02T08:21:49;1.63;;;1.52;;
6737;SDS011;3406;49.902;8.596;2023-07-02T08:24:16;1.23;;;1.23;;
6737;SDS011;3406;49.902;8.596;2023-07-02T08:26:44;1.35;;;1.35;;
6737;SDS011;3406;49.902;8.596;2023-07-02T08:29:12;1.77;;;1.35;;
6737;SDS011;3406;49.902;8.596;2023-07-02T08:31:39;6.32;;;1.88;;
6737;SDS011;3406;49.902;8.596;2023-07-02T08:34:06;0.65;;;0.65;;
6737;SDS011;3406;49.902;8.596;2023-07-02T08:36:33;1.15;;;1.15;;
6737;SDS011;3406;49.902;8.596;2023-07-02T08:38:59;3.55;;;1.63;;
6737;SDS011;3406;49.902;8.596;2023-07-02T08:41:26;1.00;;;0.85;;
6737;SDS011;3406;49.902;8.596;2023-07-02T08:43:55;2.17;;;2.08;;
6737;SDS011;3406;49.902;8.596;2023-07-02T08:46:24;1.80;;;1.73;;
6737;SDS011;3406;49.902;8.596;2023-07-02T08:48:51;1.60;;;0.60;;
6737;SDS011;3406;49.902;8.596;2023-07-02T08:51:18;1.08;;;1.08;;
6737;SDS011;3406;49.902;8.596;2023-07-02T08:53:44;2.38;;;2.25;;
6737;SDS011;3406;49.902;8.596;2023-07-02T08:56:11;2.70;;;2.60;;
6737;SDS011;3406;49.902;8.596;2023-07-02T08:58:38;1.83;;;1.80;;
6737;SDS011;3406;49.902;8.596;2023-07-02T09:01:07;2.33;;;0.85;;
6737;SDS011;3406;49.902;8.596;2023-07-02T09:03:34;0.80;;;0.80;;
6737;SDS011;3406;49.902;8.596;2023-07-02T09:06:02;1.65;;;1.00;;
6737;SDS011;3406;49.902;8.596;2023-07-02T09:08:29;0.90;;;0.90;;
6737;SDS011;3406;49.902;8.596;2023-07-02T09:11:05;0.60;;;0.60;;
6737;SDS011;3406;49.902;8.596;2023-07-02T09:13:41;0.90;;;0.90;;
6737;SDS011;3406;49.902;8.596;2023-07-02T09:16:19;0.88;;;0.88;;
6737;SDS011;3406;49.902;8.596;2023-07-02T09:18:54;1.52;;;1.52;;
6737;SDS011;3406;49.902;8.596;2023-07-02T09:21:25;1.42;;;0.70;;
6737;SDS011;3406;49.902;8.596;2023-07-02T09:23:52;1.98;;;1.88;;
6737;SDS011;3406;49.902;8.596;2023-07-02T09:26:19;0.90;;;0.90;;
6737;SDS011;3406;49.902;8.596;2023-07-02T09:28:46;5.60;;;1.40;;
6737;SDS011;3406;49.902;8.596;2023-07-02T09:31:14;2.72;;;1.08;;
6737;SDS011;3406;49.902;8.596;2023-07-02T09:33:41;1.02;;;1.02;;
6737;SDS011;3406;49.902;8.596;2023-07-02T09:36:08;1.92;;;1.83;;
6737;SDS011;3406;49.902;8.596;2023-07-02T09:38:35;3.80;;;2.10;;
6737;SDS011;3406;49.902;8.596;2023-07-02T09:41:01;2.78;;;1.83;;
6737;SDS011;3406;49.902;8.596;2023-07-02T09:43:28;2.80;;;1.55;;
6737;SDS011;3406;49.902;8.596;2023-07-02T09:45:58;1.15;;;1.15;;
6737;SDS011;3406;49.902;8.596;2023-07-02T09:48:26;1.73;;;1.63;;
6737;SDS011;3406;49.902;8.596;2023-07-02T09:50:54;1.33;;;1.33;;
6737;SDS011;3406;49.902;8.596;2023-07-02T09:53:25;2.58;;;1.25;;
6737;SDS011;3406;49.902;8.596;2023-07-02T09:55:53;1.60;;;1.60;;
6737;SDS011;3406;49.902;8.596;2023-07-02T09:58:20;1.55;;;1.45;;
6737;SDS011;3406;49.902;8.596;2023-07-02T10:00:47;1.33;;;1.13;;
6737;SDS011;3406;49.902;8.596;2023-07-02T10:03:14;1.17;;;1.17;;
6737;SDS011;3406;49.902;8.596;2023-07-02T10:05:42;0.50;;;0.50;;
6737;SDS011;3406;49.902;8.596;2023-07-02T10:08:12;1.05;;;1.05;;
6737;SDS011;3406;49.902;8.596;2023-07-02T10:10:39;1.83;;;1.73;;
6737;SDS011;3406;49.902;8.596;2023-07-02T10:13:06;1.20;;;1.13;;
6737;SDS011;3406;49.902;8.596;2023-07-02T10:15:32;0.90;;;0.90;;
6737;SDS011;3406;49.902;8.596;2023-07-02T10:18:02;2.47;;;1.42;;
6737;SDS011;3406;49.902;8.596;2023-07-02T10:20:33;5.05;;;1.38;;
6737;SDS011;3406;49.902;8.596;2023-07-02T10:23:02;0.85;;;0.85;;
6737;SDS011;3406;49.902;8.596;2023-07-02T10:25:30;2.00;;;1.52;;
6737;SDS011;3406;49.902;8.596;2023-07-02T10:27:59;1.42;;;1.42;;
6737;SDS011;3406;49.902;8.596;2023-07-02T10:30:33;1.17;;;1.17;;
6737;SDS011;3406;49.902;8.596;2023-07-02T10:33:07;1.95;;;1.33;;
6737;SDS011;3406;49.902;8.596;2023-07-02T10:35:35;1.52;;;1.48;;
6737;SDS011;3406;49.902;8.596;2023-07-02T10:38:03;1.45;;;1.42;;
6737;SDS011;3406;49.902;8.596;2023-07-02T10:40:31;2.28;;;2.00;;
6737;SDS011;3406;49.902;8.596;2023-07-02T10:42:59;1.23;;;1.17;;
6737;SDS011;3406;49.902;8.596;2023-07-02T10:45:32;0.95;;;0.95;;
6737;SDS011;3406;49.902;8.596;2023-07-02T10:48:01;1.90;;;1.90;;
6737;SDS011;3406;49.902;8.596;2023-07-02T10:50:29;7.35;;;1.83;;
6737;SDS011;3406;49.902;8.596;2023-07-02T10:52:57;1.80;;;1.70;;
6737;SDS011;3406;49.902;8.596;2023-07-02T10:55:26;2.53;;;2.33;;
6737;SDS011;3406;49.902;8.596;2023-07-02T10:58:02;1.67;;;1.58;;
6737;SDS011;3406;49.902;8.596;2023-07-02T11:00:29;1.13;;;1.02;;
6737;SDS011;3406;49.902;8.596;2023-07-02T11:02:56;1.67;;;0.98;;
6737;SDS011;3406;49.902;8.596;2023-07-02T11:05:24;1.90;;;1.73;;
6737;SDS011;3406;49.902;8.596;2023-07-02T11:07:51;1.27;;;1.27;;
6737;SDS011;3406;49.902;8.596;2023-07-02T11:10:22;1.52;;;1.52;;
6737;SDS011;3406;49.902;8.596;2023-07-02T11:12:50;2.30;;;2.20;;
6737;SDS011;3406;49.902;8.596;2023-07-02T11:15:17;2.22;;;2.13;;
6737;SDS011;3406;49.902;8.596;2023-07-02T11:17:44;4.05;;;3.65;;
6737;SDS011;3406;49.902;8.596;2023-07-02T11:20:12;7.47;;;1.65;;
6737;SDS011;3406;49.902;8.596;2023-07-02T11:22:40;1.13;;;1.13;;
6737;SDS011;3406;49.902;8.596;2023-07-02T11:25:11;2.15;;;1.92;;
6737;SDS011;3406;49.902;8.596;2023-07-02T11:27:38;1.60;;;1.50;;
6737;SDS011;3406;49.902;8.596;2023-07-02T11:30:07;2.95;;;2.67;;
6737;SDS011;3406;49.902;8.596;2023-07-02T11:35:16;2.85;;;2.58;;
6737;SDS011;3406;49.902;8.596;2023-07-02T11:37:44;1.85;;;1.75;;
6737;SDS011;3406;49.902;8.596;2023-07-02T11:40:11;1.88;;;1.02;;
6737;SDS011;3406;49.902;8.596;2023-07-02T11:42:38;3.28;;;2.97;;
6737;SDS011;3406;49.902;8.596;2023-07-02T11:45:07;1.52;;;1.42;;
6737;SDS011;3406;49.902;8.596;2023-07-02T11:47:34;1.13;;;1.13;;
6737;SDS011;3406;49.902;8.596;2023-07-02T11:50:01;6.15;;;1.38;;
6737;SDS011;3406;49.902;8.596;2023-07-02T11:52:28;1.67;;;1.60;;
6737;SDS011;3406;49.902;8.596;2023-07-02T11:54:55;5.07;;;2.80;;
6737;SDS011;3406;49.902;8.596;2023-07-02T11:57:21;2.20;;;2.10;;
6737;SDS011;3406;49.902;8.596;2023-07-02T11:59:48;2.13;;;1.83;;
6737;SDS011;3406;49.902;8.596;2023-07-02T12:02:16;1.23;;;1.15;;
6737;SDS011;3406;49.902;8.596;2023-07-02T12:04:43;4.90;;;1.83;;
6737;SDS011;3406;49.902;8.596;2023-07-02T12:07:09;4.13;;;2.17;;
6737;SDS011;3406;49.902;8.596;2023-07-02T12:09:38;2.05;;;1.83;;
6737;SDS011;3406;49.902;8.596;2023-07-02T12:12:05;1.80;;;1.67;;
6737;SDS011;3406;49.902;8.596;2023-07-02T12:14:32;3.28;;;2.13;;
6737;SDS011;3406;49.902;8.596;2023-07-02T12:16:59;10.68;;;2.10;;
6737;SDS011;3406;49.902;8.596;2023-07-02T12:19:27;2.10;;;2.00;;
6737;SDS011;3406;49.902;8.596;2023-07-02T12:21:53;1.60;;;1.50;;
6737;SDS011;3406;49.902;8.596;2023-07-02T12:24:20;2.55;;;1.77;;
6737;SDS011;3406;49.902;8.596;2023-07-02T12:26:46;2.40;;;2.30;;
6737;SDS011;3406;49.902;8.596;2023-07-02T12:29:13;6.93;;;1.48;;
6737;SDS011;3406;49.902;8.596;2023-07-02T12:31:40;2.97;;;1.88;;
6737;SDS011;3406;49.902;8.596;2023-07-02T12:34:06;2.47;;;1.05;;
6737;SDS011;3406;49.902;8.596;2023-07-02T12:36:34;2.22;;;2.10;;
6737;SDS011;3406;49.902;8.596;2023-07-02T12:39:01;1.35;;;1.35;;
6737;SDS011;3406;49.902;8.596;2023-07-02T12:41:28;3.15;;;2.20;;
6737;SDS011;3406;49.902;8.596;2023-07-02T12:43:55;2.35;;;2.15;;
6737;SDS011;3406;49.902;8.596;2023-07-02T12:46:22;3.83;;;2.03;;
6737;SDS011;3406;49.902;8.596;2023-07-02T12:48:48;2.13;;;1.92;;
6737;SDS011;3406;49.902;8.596;2023-07-02T12:51:15;1.92;;;1.80;;
6737;SDS011;3406;49.902;8.596;2023-07-02T12:53:43;2.40;;;2.30;;
6737;SDS011;3406;49.902;8.596;2023-07-02T12:56:09;3.03;;;2.83;;
6737;SDS011;3406;49.902;8.596;2023-07-02T12:58:36;3.33;;;2.50;;
6737;SDS011;3406;49.902;8.596;2023-07-02T13:01:03;9.52;;;2.78;;
6737;SDS011;3406;49.902;8.596;2023-07-02T13:03:30;2.05;;;1.95;;
6737;SDS011;3406;49.902;8.596;2023-07-02T13:05:57;1.50;;;1.40;;
6737;SDS011;3406;49.902;8.596;2023-07-02T13:08:23;9.98;;;1.60;;
6737;SDS011;3406;49.902;8.596;2023-07-02T13:10:51;1.95;;;1.88;;
6737;SDS011;3406;49.902;8.596;2023-07-02T13:13:18;4.68;;;3.08;;
6737;SDS011;3406;49.902;8.596;2023-07-02T13:15:45;4.55;;;2.58;;
6737;SDS011;3406;49.902;8.596;2023-07-02T13:18:11;1.83;;;1.75;;
6737;SDS011;3406;49.902;8.596;2023-07-02T13:20:38;1.83;;;1.77;;
6737;SDS011;3406;49.902;8.596;2023-07-02T13:23:04;1.67;;;1.65;;
6737;SDS011;3406;49.902;8.596;2023-07-02T13:25:31;2.72;;;2.25;;
6737;SDS011;3406;49.902;8.596;2023-07-02T13:27:59;3.97;;;1.70;;
6737;SDS011;3406;49.902;8.596;2023-07-02T13:30:26;2.55;;;1.73;;
6737;SDS011;3406;49.902;8.596;2023-07-02T13:32:53;1.35;;;1.35;;
6737;SDS011;3406;49.902;8.596;2023-07-02T13:35:20;2.45;;;1.88;;
6737;SDS011;3406;49.902;8.596;2023-07-02T13:37:47;2.58;;;2.00;;
6737;SDS011;3406;49.902;8.596;2023-07-02T13:40:14;1.88;;;1.77;;
6737;SDS011;3406;49.902;8.596;2023-07-02T13:42:41;6.40;;;2.08;;
6737;SDS011;3406;49.902;8.596;2023-07-02T13:45:09;1.75;;;1.55;;
6737;SDS011;3406;49.902;8.596;2023-07-02T13:47:36;2.13;;;1.80;;
6737;SDS011;3406;49.902;8.596;2023-07-02T13:50:03;1.58;;;1.58;;
6737;SDS011;3406;49.902;8.596;2023-07-02T13:52:30;1.90;;;1.80;;
6737;SDS011;3406;49.902;8.596;2023-07-02T13:54:57;1.50;;;1.40;;
6737;SDS011;3406;49.902;8.596;2023-07-02T13:57:24;2.13;;;2.03;;
6737;SDS011;3406;49.902;8.596;2023-07-02T13:59:52;1.05;;;0.95;;
6737;SDS011;3406;49.902;8.596;2023-07-02T14:02:20;1.63;;;1.63;;
6737;SDS011;3406;49.902;8.596;2023-07-02T14:04:46;7.13;;;1.60;;
6737;SDS011;3406;49.902;8.596;2023-07-02T14:07:13;1.55;;;1.45;;
6737;SDS011;3406;49.902;8.596;2023-07-02T14:09:40;1.70;;;1.60;;
6737;SDS011;3406;49.902;8.596;2023-07-02T14:12:07;1.73;;;1.63;;
6737;SDS011;3406;49.902;8.596;2023-07-02T14:14:34;1.50;;;1.08;;
6737;SDS011;3406;49.902;8.596;2023-07-02T14:17:02;1.67;;;1.52;;
6737;SDS011;3406;49.902;8.596;2023-07-02T14:19:29;2.47;;;2.38;;
6737;SDS011;3406;49.902;8.596;2023-07-02T14:21:56;4.07;;;1.70;;
6737;SDS011;3406;49.902;8.596;2023-07-02T14:24:22;2.55;;;2.38;;
6737;SDS011;3406;49.902;8.596;2023-07-02T14:26:49;5.53;;;1.50;;
6737;SDS011;3406;49.902;8.596;2023-07-02T14:29:16;1.00;;;1.00;;
6737;SDS011;3406;49.902;8.596;2023-07-02T14:31:43;10.68;;;1.20;;
6737;SDS011;3406;49.902;8.596;2023-07-02T14:34:11;6.80;;;2.00;;
6737;SDS011;3406;49.902;8.596;2023-07-02T14:36:37;1.92;;;1.83;;
6737;SDS011;3406;49.902;8.596;2023-07-02T14:39:04;3.28;;;2.15;;
6737;SDS011;3406;49.902;8.596;2023-07-02T14:41:30;1.02;;;1.02;;
6737;SDS011;3406;49.902;8.596;2023-07-02T14:44:00;1.77;;;1.67;;
6737;SDS011;3406;49.902;8.596;2023-07-02T14:46:27;2.15;;;1.92;;
6737;SDS011;3406;49.902;8.596;2023-07-02T14:48:53;2.75;;;2.53;;
6737;SDS011;3406;49.902;8.596;2023-07-02T14:51:21;4.78;;;1.35;;
6737;SDS011;3406;49.902;8.596;2023-07-02T14:53:49;1.83;;;1.75;;
6737;SDS011;3406;49.902;8.596;2023-07-02T14:56:16;1.27;;;1.27;;
6737;SDS011;3406;49.902;8.596;2023-07-02T14:58:43;1.88;;;1.77;;
6737;SDS011;3406;49.902;8.596;2023-07-02T15:01:10;2.00;;;1.90;;
6737;SDS011;3406;49.902;8.596;2023-07-02T15:03:36;2.17;;;1.98;;
6737;SDS011;3406;49.902;8.596;2023-07-02T15:06:07;1.85;;;1.50;;
6737;SDS011;3406;49.902;8.596;2023-07-02T15:08:36;2.30;;;2.20;;
6737;SDS011;3406;49.902;8.596;2023-07-02T15:11:03;2.65;;;1.70;;
6737;SDS011;3406;49.902;8.596;2023-07-02T15:13:30;2.75;;;1.92;;
6737;SDS011;3406;49.902;8.596;2023-07-02T15:15:57;1.08;;;1.02;;
6737;SDS011;3406;49.902;8.596;2023-07-02T15:18:24;1.88;;;1.88;;
6737;SDS011;3406;49.902;8.596;2023-07-02T15:20:51;3.72;;;2.17;;
6737;SDS011;3406;49.902;8.596;2023-07-02T15:23:20;1.45;;;1.40;;
6737;SDS011;3406;49.902;8.596;2023-07-02T15:25:51;2.10;;;2.05;;
6737;SDS011;3406;49.902;8.596;2023-07-02T15:28:18;2.33;;;2.03;;